createdAt,value
2019-06-20T00:00:06.702Z,4.50
2019-06-20T00:01:06.695Z,4.70
2019-06-20T00:02:06.681Z,3.60
2019-06-20T00:03:06.671Z,6.40
2019-06-20T00:04:06.666Z,4.40
2019-06-20T00:05:06.644Z,5.20
2019-06-20T00:06:06.638Z,5.50
2019-06-20T00:07:06.640Z,5.50
2019-06-20T00:08:06.616Z,3.90
2019-06-20T00:09:06.606Z,5.60
2019-06-20T00:10:06.593Z,6.00
2019-06-20T00:11:06.593Z,5.10
2019-06-20T00:12:06.579Z,3.80
2019-06-20T00:13:06.564Z,4.20
2019-06-20T00:14:06.560Z,3.70
2019-06-20T00:15:06.535Z,4.40
2019-06-20T00:16:06.525Z,4.40
2019-06-20T00:17:06.513Z,5.40
2019-06-20T00:18:06.502Z,5.00
2019-06-20T00:19:06.504Z,4.90
2019-06-20T00:20:06.488Z,5.70
2019-06-20T00:21:06.470Z,4.60
2019-06-20T00:22:06.472Z,4.50
2019-06-20T00:23:06.450Z,3.20
2019-06-20T00:24:06.448Z,4.90
2019-06-20T00:25:06.446Z,3.70
2019-06-20T00:26:06.416Z,3.70
2019-06-20T00:27:06.445Z,2.50
2019-06-20T00:28:06.399Z,4.90
2019-06-20T00:29:06.389Z,3.20
2019-06-20T00:30:06.376Z,2.90
2019-06-20T00:31:06.368Z,2.40
2019-06-20T00:32:06.380Z,4.50
2019-06-20T00:33:06.339Z,3.70
2019-06-20T00:34:06.333Z,3.80
2019-06-20T00:35:06.332Z,3.10
2019-06-20T00:36:06.322Z,2.10
2019-06-20T00:37:06.308Z,1.80
2019-06-20T00:38:06.286Z,2.00
2019-06-20T00:39:06.279Z,2.40
2019-06-20T00:40:06.275Z,2.10
2019-06-20T00:41:06.269Z,1.90
2019-06-20T00:42:06.247Z,2.80
2019-06-20T00:43:16.851Z,2.50
2019-06-20T00:44:07.218Z,1.80
2019-06-20T00:45:06.232Z,2.20
2019-06-20T00:46:06.215Z,2.70
2019-06-20T00:47:06.188Z,3.70
2019-06-20T00:48:06.176Z,2.50
2019-06-20T00:49:06.172Z,2.50
2019-06-20T00:50:06.155Z,3.30
2019-06-20T00:51:06.148Z,2.90
2019-06-20T00:52:06.145Z,2.80
2019-06-20T00:53:06.120Z,3.10
2019-06-20T00:54:06.116Z,3.60
2019-06-20T00:55:06.107Z,3.60
2019-06-20T00:56:06.137Z,2.80
2019-06-20T00:57:06.085Z,3.90
2019-06-20T00:58:06.071Z,3.20
2019-06-20T00:59:06.057Z,4.10
2019-06-20T01:00:06.057Z,4.80
2019-06-20T01:01:06.038Z,4.00
2019-06-20T01:02:06.038Z,6.20
2019-06-20T01:03:06.018Z,3.90
2019-06-20T01:04:06.006Z,4.50
2019-06-20T01:05:05.997Z,5.30
2019-06-20T01:06:05.989Z,4.50
2019-06-20T01:07:05.992Z,3.00
2019-06-20T01:08:05.959Z,4.30
2019-06-20T01:09:05.948Z,4.60
2019-06-20T01:10:05.945Z,5.90
2019-06-20T01:11:05.934Z,4.20
2019-06-20T01:12:06.015Z,3.50
2019-06-20T01:13:05.908Z,4.60
2019-06-20T01:14:05.895Z,4.30
2019-06-20T01:15:05.892Z,4.10
2019-06-20T01:16:05.878Z,3.50
2019-06-20T01:17:05.872Z,4.10
2019-06-20T01:18:05.862Z,5.30
2019-06-20T01:19:05.843Z,3.80
2019-06-20T01:20:05.840Z,3.90
2019-06-20T01:21:05.816Z,4.70
2019-06-20T01:22:05.808Z,5.00
2019-06-20T01:23:05.810Z,4.30
2019-06-20T01:24:05.787Z,6.20
2019-06-20T01:25:05.774Z,6.00
2019-06-20T01:26:05.772Z,4.70
2019-06-20T01:27:05.751Z,6.20
2019-06-20T01:28:05.772Z,5.30
2019-06-20T01:29:05.731Z,4.60
2019-06-20T01:30:05.723Z,3.70
2019-06-20T01:31:05.715Z,3.50
2019-06-20T01:32:05.703Z,4.60
2019-06-20T01:33:05.693Z,6.30
2019-06-20T01:34:05.688Z,4.50
2019-06-20T01:35:05.669Z,3.50
2019-06-20T01:36:05.662Z,3.10
2019-06-20T01:37:05.644Z,3.70
2019-06-20T01:38:05.640Z,3.50
2019-06-20T01:39:05.635Z,3.10
2019-06-20T01:40:05.621Z,3.20
2019-06-20T01:41:06.317Z,3.70
2019-06-20T01:42:05.595Z,4.70
2019-06-20T01:43:05.583Z,3.30
2019-06-20T01:44:05.577Z,4.20
2019-06-20T01:45:05.566Z,3.20
2019-06-20T01:46:05.548Z,3.00
2019-06-20T01:47:05.537Z,3.70
2019-06-20T01:48:05.536Z,3.50
2019-06-20T01:49:05.543Z,4.10
2019-06-20T01:50:05.513Z,3.90
2019-06-20T01:51:05.505Z,3.70
2019-06-20T01:52:05.483Z,3.50
2019-06-20T01:53:05.476Z,4.40
2019-06-20T01:54:05.508Z,4.70
2019-06-20T01:55:05.461Z,3.10
2019-06-20T01:56:05.445Z,4.20
2019-06-20T01:57:05.426Z,3.00
2019-06-20T01:58:05.491Z,3.20
2019-06-20T01:59:05.415Z,3.50
2019-06-20T02:00:05.432Z,3.30
2019-06-20T02:01:05.384Z,3.00
2019-06-20T02:02:05.374Z,3.70
2019-06-20T02:03:05.363Z,3.90
2019-06-20T02:04:05.353Z,3.40
2019-06-20T02:05:05.354Z,3.20
2019-06-20T02:06:05.355Z,2.90
2019-06-20T02:07:05.385Z,4.30
2019-06-20T02:08:05.307Z,3.10
2019-06-20T02:09:05.302Z,3.60
2019-06-20T02:10:05.292Z,4.20
2019-06-20T02:11:05.293Z,3.60
2019-06-20T02:12:05.264Z,3.50
2019-06-20T02:13:05.259Z,3.60
2019-06-20T02:14:07.497Z,3.60
2019-06-20T02:15:05.264Z,3.20
2019-06-20T02:16:05.236Z,3.70
2019-06-20T02:17:05.232Z,3.30
2019-06-20T02:18:05.204Z,3.90
2019-06-20T02:19:05.195Z,3.30
2019-06-20T02:20:05.180Z,4.20
2019-06-20T02:21:05.179Z,6.00
2019-06-20T02:22:05.165Z,5.50
2019-06-20T02:23:05.160Z,3.60
2019-06-20T02:24:05.134Z,3.90
2019-06-20T02:25:05.132Z,4.10
2019-06-20T02:26:05.120Z,5.10
2019-06-20T02:27:05.123Z,5.20
2019-06-20T02:28:05.100Z,3.60
2019-06-20T02:29:05.086Z,4.70
2019-06-20T02:30:05.082Z,3.40
2019-06-20T02:31:05.065Z,3.90
2019-06-20T02:32:05.064Z,3.80
2019-06-20T02:33:05.059Z,3.70
2019-06-20T02:34:05.039Z,3.70
2019-06-20T02:35:05.018Z,5.60
2019-06-20T02:36:05.012Z,5.00
2019-06-20T02:37:05.000Z,3.10
2019-06-20T02:38:04.987Z,5.40
2019-06-20T02:39:05.000Z,4.00
2019-06-20T02:40:04.969Z,4.00
2019-06-20T02:41:04.965Z,3.40
2019-06-20T02:42:04.951Z,4.30
2019-06-20T02:43:04.960Z,3.80
2019-06-20T02:44:04.955Z,4.40
2019-06-20T02:45:04.924Z,5.50
2019-06-20T02:46:04.985Z,3.40
2019-06-20T02:47:04.923Z,3.80
2019-06-20T02:48:04.889Z,3.60
2019-06-20T02:49:04.873Z,3.50
2019-06-20T02:50:04.863Z,4.40
2019-06-20T02:51:04.851Z,4.10
2019-06-20T02:52:04.833Z,4.90
2019-06-20T02:53:04.839Z,4.00
2019-06-20T02:54:04.815Z,3.70
2019-06-20T02:55:04.801Z,3.80
2019-06-20T02:56:04.790Z,5.20
2019-06-20T02:57:04.786Z,4.10
2019-06-20T02:58:04.773Z,4.40
2019-06-20T02:59:04.771Z,3.20
2019-06-20T03:00:04.762Z,3.80
2019-06-20T03:01:04.746Z,4.20
2019-06-20T03:02:04.730Z,3.60
2019-06-20T03:03:04.729Z,5.10
2019-06-20T03:04:04.703Z,3.90
2019-06-20T03:05:04.696Z,3.90
2019-06-20T03:06:04.700Z,3.70
2019-06-20T03:07:04.677Z,3.80
2019-06-20T03:08:04.660Z,4.20
2019-06-20T03:09:04.660Z,4.80
2019-06-20T03:10:04.654Z,5.60
2019-06-20T03:11:04.634Z,6.00
2019-06-20T03:12:04.616Z,5.10
2019-06-20T03:13:04.607Z,4.10
2019-06-20T03:14:04.594Z,6.40
2019-06-20T03:15:04.610Z,3.90
2019-06-20T03:16:04.578Z,4.20
2019-06-20T03:17:04.574Z,4.80
2019-06-20T03:18:04.550Z,4.90
2019-06-20T03:19:04.552Z,3.90
2019-06-20T03:20:04.542Z,5.40
2019-06-20T03:21:04.523Z,7.30
2019-06-20T03:22:04.523Z,4.10
2019-06-20T03:23:04.528Z,6.20
2019-06-20T03:24:04.484Z,4.50
2019-06-20T03:25:04.486Z,5.10
2019-06-20T03:26:04.487Z,5.00
2019-06-20T03:27:04.462Z,4.40
2019-06-20T03:28:04.507Z,5.10
2019-06-20T03:29:04.436Z,5.30
2019-06-20T03:30:04.420Z,5.20
2019-06-20T03:31:04.418Z,4.50
2019-06-20T03:32:04.408Z,63.70
2019-06-20T03:33:04.398Z,241.00
2019-06-20T03:34:04.385Z,384.90
2019-06-20T03:35:04.364Z,280.30
2019-06-20T03:36:04.363Z,25.70
2019-06-20T03:37:04.356Z,7.40
2019-06-20T03:38:04.338Z,6.00
2019-06-20T03:39:04.322Z,5.90
2019-06-20T03:40:04.310Z,4.40
2019-06-20T03:41:04.305Z,4.70
2019-06-20T03:42:04.295Z,5.40
2019-06-20T03:43:04.290Z,5.00
2019-06-20T03:44:04.273Z,4.60
2019-06-20T03:45:04.265Z,5.20
2019-06-20T03:46:04.251Z,5.00
2019-06-20T03:47:04.249Z,5.80
2019-06-20T03:48:04.226Z,4.70
2019-06-20T03:49:04.218Z,6.00
2019-06-20T03:50:04.209Z,4.60
2019-06-20T03:51:04.203Z,4.40
2019-06-20T03:52:04.211Z,4.50
2019-06-20T03:53:11.899Z,206.70
2019-06-20T03:54:04.171Z,209.10
2019-06-20T03:55:04.156Z,23.50
2019-06-20T03:56:04.137Z,5.50
2019-06-20T03:57:04.131Z,4.50
2019-06-20T03:58:04.128Z,5.30
2019-06-20T03:59:04.104Z,4.50
2019-06-20T04:00:04.099Z,4.50
2019-06-20T04:01:04.085Z,5.00
2019-06-20T04:02:04.077Z,132.40
2019-06-20T04:03:04.068Z,33.20
2019-06-20T04:04:04.056Z,8.40
2019-06-20T04:05:04.040Z,6.40
2019-06-20T04:06:04.036Z,5.50
2019-06-20T04:07:04.018Z,4.80
2019-06-20T04:08:04.016Z,5.10
2019-06-20T04:09:03.996Z,5.20
2019-06-20T04:10:03.991Z,5.90
2019-06-20T04:11:03.978Z,6.40
2019-06-20T04:12:03.968Z,4.70
2019-06-20T04:13:03.966Z,6.00
2019-06-20T04:14:03.973Z,4.70
2019-06-20T04:15:17.867Z,5.90
2019-06-20T04:16:04.932Z,5.10
2019-06-20T04:17:03.967Z,5.70
2019-06-20T04:18:03.902Z,4.90
2019-06-20T04:19:03.894Z,5.10
2019-06-20T04:20:03.913Z,6.60
2019-06-20T04:21:03.873Z,5.10
2019-06-20T04:22:03.854Z,5.80
2019-06-20T04:23:03.857Z,5.20
2019-06-20T04:24:03.839Z,4.70
2019-06-20T04:25:03.830Z,5.00
2019-06-20T04:26:03.819Z,4.40
2019-06-20T04:27:03.806Z,6.70
2019-06-20T04:28:03.794Z,5.60
2019-06-20T04:29:03.799Z,5.90
2019-06-20T04:30:03.773Z,4.80
2019-06-20T04:31:03.759Z,4.20
2019-06-20T04:32:03.763Z,9.40
2019-06-20T04:33:03.736Z,5.10
2019-06-20T04:34:03.730Z,6.90
2019-06-20T04:35:03.733Z,6.00
2019-06-20T04:36:03.707Z,5.70
2019-06-20T04:37:03.698Z,5.70
2019-06-20T04:38:03.693Z,4.80
2019-06-20T04:39:18.350Z,7.30
2019-06-20T04:40:04.675Z,5.10
2019-06-20T04:41:03.654Z,4.40
2019-06-20T04:42:03.646Z,5.80
2019-06-20T04:43:03.626Z,4.90
2019-06-20T04:44:03.622Z,5.10
2019-06-20T04:45:03.611Z,4.90
2019-06-20T04:46:03.602Z,5.30
2019-06-20T04:47:03.583Z,4.60
2019-06-20T04:48:03.573Z,6.30
2019-06-20T04:49:03.567Z,4.90
2019-06-20T04:50:03.555Z,4.30
2019-06-20T04:51:03.566Z,4.90
2019-06-20T04:52:03.537Z,5.20
2019-06-20T04:53:03.517Z,6.50
2019-06-20T04:54:03.518Z,5.90
2019-06-20T04:55:03.515Z,6.40
2019-06-20T04:56:05.749Z,5.70
2019-06-20T04:57:03.513Z,4.60
2019-06-20T04:58:03.476Z,4.70
2019-06-20T04:59:03.483Z,4.60
2019-06-20T05:00:03.441Z,4.60
2019-06-20T05:01:03.435Z,4.90
2019-06-20T05:02:03.430Z,4.90
2019-06-20T05:03:03.416Z,4.20
2019-06-20T05:04:03.398Z,5.30
2019-06-20T05:05:03.386Z,4.90
2019-06-20T05:06:03.376Z,5.40
2019-06-20T05:07:03.370Z,4.40
2019-06-20T05:08:03.370Z,5.20
2019-06-20T05:09:03.378Z,4.40
2019-06-20T05:10:03.351Z,5.00
2019-06-20T05:11:03.324Z,5.20
2019-06-20T05:12:03.320Z,5.30
2019-06-20T05:13:03.298Z,5.00
2019-06-20T05:14:03.293Z,5.10
2019-06-20T05:15:03.297Z,6.00
2019-06-20T05:16:03.266Z,4.90
2019-06-20T05:17:07.015Z,5.60
2019-06-20T05:18:03.257Z,5.60
2019-06-20T05:19:03.234Z,6.30
2019-06-20T05:20:03.243Z,4.70
2019-06-20T05:21:03.245Z,6.00
2019-06-20T05:22:03.212Z,5.20
2019-06-20T05:23:03.190Z,4.30
2019-06-20T05:24:03.191Z,5.80
2019-06-20T05:25:03.180Z,4.60
2019-06-20T05:26:03.172Z,4.50
2019-06-20T05:27:03.147Z,4.50
2019-06-20T05:28:03.140Z,4.60
2019-06-20T05:29:05.415Z,5.80
2019-06-20T05:30:03.123Z,6.40
2019-06-20T05:31:03.118Z,4.50
2019-06-20T05:32:03.111Z,5.80
2019-06-20T05:33:03.093Z,5.30
2019-06-20T05:34:03.076Z,4.80
2019-06-20T05:35:03.353Z,4.00
2019-06-20T05:36:03.059Z,4.60
2019-06-20T05:37:03.057Z,5.00
2019-06-20T05:38:03.030Z,4.30
2019-06-20T05:39:03.023Z,4.90
2019-06-20T05:40:03.028Z,4.10
2019-06-20T05:41:03.004Z,5.10
2019-06-20T05:42:03.018Z,4.20
2019-06-20T05:43:03.036Z,4.50
2019-06-20T05:44:02.968Z,5.20
2019-06-20T05:45:02.971Z,3.90
2019-06-20T05:46:09.562Z,5.50
2019-06-20T05:47:12.390Z,4.00
2019-06-20T05:48:03.925Z,3.70
2019-06-20T05:49:02.907Z,3.80
2019-06-20T05:50:02.905Z,4.30
2019-06-20T05:51:02.890Z,4.10
2019-06-20T05:52:02.886Z,4.80
2019-06-20T05:53:02.874Z,4.50
2019-06-20T05:54:02.857Z,5.10
2019-06-20T05:55:02.848Z,5.40
2019-06-20T05:56:02.838Z,5.10
2019-06-20T05:57:04.551Z,5.00
2019-06-20T05:58:02.822Z,3.70
2019-06-20T05:59:02.797Z,5.00
2019-06-20T06:00:02.788Z,4.40
2019-06-20T06:01:02.774Z,3.70
2019-06-20T06:02:02.794Z,4.30
2019-06-20T06:03:06.808Z,4.70
2019-06-20T06:04:02.822Z,4.80
2019-06-20T06:05:02.736Z,6.60
2019-06-20T06:06:02.719Z,6.00
2019-06-20T06:07:02.721Z,4.40
2019-06-20T06:08:02.746Z,4.90
2019-06-20T06:09:02.687Z,5.40
2019-06-20T06:10:03.999Z,5.10
2019-06-20T06:11:02.677Z,4.90
2019-06-20T06:12:02.653Z,4.50
2019-06-20T06:13:03.057Z,4.90
2019-06-20T06:14:02.646Z,5.50
2019-06-20T06:15:02.625Z,5.20
2019-06-20T06:16:02.619Z,6.40
2019-06-20T06:17:03.604Z,4.30
2019-06-20T06:18:02.653Z,5.20
2019-06-20T06:19:02.594Z,5.60
2019-06-20T06:20:02.567Z,5.80
2019-06-20T06:21:02.556Z,5.80
2019-06-20T06:22:02.563Z,6.00
2019-06-20T06:23:02.542Z,6.10
2019-06-20T06:24:02.551Z,7.80
2019-06-20T06:25:02.515Z,7.70
2019-06-20T06:26:02.516Z,6.70
2019-06-20T06:27:02.515Z,7.80
2019-06-20T06:28:02.478Z,6.20
2019-06-20T06:29:02.473Z,7.00
2019-06-20T06:30:02.472Z,9.40
2019-06-20T06:31:02.469Z,7.50
2019-06-20T06:32:02.472Z,9.70
2019-06-20T06:33:02.425Z,7.20
2019-06-20T06:34:02.417Z,7.20
2019-06-20T06:35:02.421Z,9.50
2019-06-20T06:36:02.401Z,7.50
2019-06-20T06:37:02.383Z,9.10
2019-06-20T06:38:02.376Z,7.70
2019-06-20T06:39:02.365Z,7.60
2019-06-20T06:40:02.381Z,7.60
2019-06-20T06:41:02.345Z,9.10
2019-06-20T06:42:02.326Z,8.50
2019-06-20T06:43:02.319Z,6.90
2019-06-20T06:44:02.312Z,7.00
2019-06-20T06:45:02.294Z,6.70
2019-06-20T06:46:02.297Z,8.60
2019-06-20T06:47:02.272Z,7.60
2019-06-20T06:48:02.274Z,7.90
2019-06-20T06:49:02.250Z,8.10
2019-06-20T06:50:02.259Z,8.20
2019-06-20T06:51:02.269Z,7.00
2019-06-20T06:52:02.224Z,7.40
2019-06-20T06:53:02.210Z,7.10
2019-06-20T06:54:02.200Z,7.00
2019-06-20T06:55:02.186Z,7.90
2019-06-20T06:56:02.175Z,7.00
2019-06-20T06:57:02.171Z,6.70
2019-06-20T06:58:02.158Z,6.60
2019-06-20T06:59:02.154Z,6.30
2019-06-20T07:00:02.354Z,7.50
2019-06-20T07:01:02.226Z,6.90
2019-06-20T07:02:02.178Z,6.40
2019-06-20T07:03:02.109Z,7.40
2019-06-20T07:04:02.093Z,6.70
2019-06-20T07:05:02.183Z,6.60
2019-06-20T07:06:02.114Z,6.30
2019-06-20T07:07:02.066Z,6.60
2019-06-20T07:08:02.054Z,7.30
2019-06-20T07:09:02.034Z,6.10
2019-06-20T07:10:02.027Z,6.70
2019-06-20T07:11:02.027Z,7.60
2019-06-20T07:12:02.063Z,6.00
2019-06-20T07:13:01.995Z,6.90
2019-06-20T07:14:02.025Z,5.90
2019-06-20T07:15:01.975Z,5.40
2019-06-20T07:16:01.973Z,5.30
2019-06-20T07:17:01.945Z,5.00
2019-06-20T07:18:01.945Z,5.10
2019-06-20T07:19:01.952Z,5.60
2019-06-20T07:20:01.913Z,4.80
2019-06-20T07:21:01.940Z,5.00
2019-06-20T07:22:01.999Z,5.50
2019-06-20T07:23:01.884Z,6.80
2019-06-20T07:24:01.877Z,7.50
2019-06-20T07:25:01.866Z,6.90
2019-06-20T07:26:01.848Z,4.90
2019-06-20T07:27:01.836Z,5.20
2019-06-20T07:28:01.828Z,5.10
2019-06-20T07:29:01.819Z,5.40
2019-06-20T07:30:01.814Z,5.60
2019-06-20T07:31:01.797Z,5.50
2019-06-20T07:32:01.791Z,6.40
2019-06-20T07:33:01.771Z,5.30
2019-06-20T07:34:01.765Z,6.30
2019-06-20T07:35:01.810Z,6.10
2019-06-20T07:36:01.740Z,5.00
2019-06-20T07:37:01.735Z,5.60
2019-06-20T07:38:01.714Z,5.40
2019-06-20T07:39:01.708Z,6.20
2019-06-20T07:40:01.710Z,5.10
2019-06-20T07:41:01.699Z,5.50
2019-06-20T07:42:01.710Z,5.40
2019-06-20T07:43:01.665Z,6.00
2019-06-20T07:44:01.651Z,6.00
2019-06-20T07:45:01.640Z,6.40
2019-06-20T07:46:03.225Z,8.50
2019-06-20T07:47:16.580Z,7.10
2019-06-20T07:48:02.618Z,4.70
2019-06-20T07:49:01.603Z,4.90
2019-06-20T07:50:01.582Z,5.20
2019-06-20T07:51:01.593Z,5.10
2019-06-20T07:52:01.771Z,4.90
2019-06-20T07:53:02.894Z,5.10
2019-06-20T07:54:01.548Z,5.10
2019-06-20T07:55:01.541Z,7.40
2019-06-20T07:56:01.553Z,4.80
2019-06-20T07:57:01.512Z,5.10
2019-06-20T07:58:01.493Z,6.40
2019-06-20T07:59:01.484Z,5.80
2019-06-20T08:00:01.474Z,7.30
2019-06-20T08:01:01.467Z,5.50
2019-06-20T08:02:01.464Z,5.50
2019-06-20T08:03:01.450Z,5.60
2019-06-20T08:04:01.432Z,6.00
2019-06-20T08:05:01.422Z,6.30
2019-06-20T08:06:01.425Z,5.80
2019-06-20T08:07:01.443Z,5.30
2019-06-20T08:08:01.390Z,5.60
2019-06-20T08:09:01.382Z,4.70
2019-06-20T08:10:01.377Z,6.10
2019-06-20T08:11:01.354Z,4.80
2019-06-20T08:12:01.348Z,5.00
2019-06-20T08:13:01.334Z,7.70
2019-06-20T08:14:01.335Z,7.50
2019-06-20T08:15:14.550Z,5.00
2019-06-20T08:16:03.800Z,5.00
2019-06-20T08:17:01.290Z,5.70
2019-06-20T08:18:01.317Z,4.80
2019-06-20T08:19:01.285Z,5.20
2019-06-20T08:20:01.260Z,6.90
2019-06-20T08:21:01.249Z,4.60
2019-06-20T08:22:01.242Z,4.80
2019-06-20T08:23:01.236Z,4.80
2019-06-20T08:24:01.221Z,4.70
2019-06-20T08:25:01.200Z,5.60
2019-06-20T08:26:02.445Z,5.20
2019-06-20T08:27:03.067Z,5.10
2019-06-20T08:28:02.426Z,5.60
2019-06-20T08:29:16.610Z,5.30
2019-06-20T08:30:03.476Z,4.40
2019-06-20T08:31:02.450Z,4.60
2019-06-20T08:32:02.674Z,5.70
2019-06-20T08:33:03.558Z,5.40
2019-06-20T08:34:02.274Z,5.20
2019-06-20T08:35:02.430Z,4.30
2019-06-20T08:36:02.194Z,4.70
2019-06-20T08:37:02.378Z,4.20
2019-06-20T08:38:01.855Z,4.30
2019-06-20T08:39:02.548Z,4.40
2019-06-20T08:40:02.180Z,4.30
2019-06-20T08:41:02.096Z,4.50
2019-06-20T08:42:02.111Z,5.10
2019-06-20T08:43:02.139Z,5.10
2019-06-20T08:44:01.763Z,4.60
2019-06-20T08:45:01.789Z,5.50
2019-06-20T08:46:01.737Z,5.00
2019-06-20T08:47:02.284Z,5.10
2019-06-20T08:48:02.415Z,4.10
2019-06-20T08:49:01.472Z,4.00
2019-06-20T08:50:01.525Z,3.80
2019-06-20T08:51:02.188Z,4.10
2019-06-20T08:52:01.236Z,5.10
2019-06-20T08:53:01.648Z,4.60
2019-06-20T08:54:01.255Z,5.40
2019-06-20T08:55:01.114Z,4.40
2019-06-20T08:56:01.014Z,4.70
2019-06-20T08:57:00.906Z,4.80
2019-06-20T08:58:01.606Z,3.90
2019-06-20T08:59:00.848Z,4.40
2019-06-20T09:00:00.829Z,4.20
2019-06-20T09:03:00.818Z,4.30
2019-06-20T09:04:03.813Z,5.40
2019-06-20T09:09:02.340Z,4.10
2019-06-20T09:10:01.961Z,4.40
2019-06-20T09:11:01.759Z,4.50
2019-06-20T09:12:00.703Z,5.80
2019-06-20T09:13:01.408Z,3.80
2019-06-20T09:14:01.493Z,4.00
2019-06-20T09:15:01.180Z,4.10
2019-06-20T09:16:00.939Z,4.20
2019-06-20T09:17:00.781Z,5.30
2019-06-20T09:18:00.768Z,4.00
2019-06-20T09:19:00.637Z,3.90
2019-06-20T09:20:00.612Z,3.90
2019-06-20T09:21:00.609Z,7.40
2019-06-20T09:22:00.619Z,4.90
2019-06-20T09:23:01.102Z,4.90
2019-06-20T09:24:00.570Z,4.20
2019-06-20T09:25:00.888Z,3.70
2019-06-20T09:26:01.891Z,4.20
2019-06-20T09:27:00.585Z,4.30
2019-06-20T09:28:00.548Z,4.80
2019-06-20T09:29:00.516Z,4.80
2019-06-20T09:30:00.616Z,4.10
2019-06-20T09:31:00.494Z,4.00
2019-06-20T09:32:00.504Z,4.30
2019-06-20T09:33:00.483Z,4.10
2019-06-20T09:34:03.694Z,3.80
2019-06-20T09:35:00.465Z,4.20
2019-06-20T09:36:00.445Z,4.40
2019-06-20T09:37:00.435Z,4.70
2019-06-20T09:38:00.427Z,5.00
2019-06-20T09:39:00.416Z,4.70
2019-06-20T09:40:00.407Z,4.60
2019-06-20T09:41:00.391Z,5.80
2019-06-20T09:42:00.383Z,4.50
2019-06-20T09:43:00.369Z,4.20
2019-06-20T09:44:00.358Z,3.90
2019-06-20T09:45:00.388Z,3.60
2019-06-20T09:46:00.349Z,4.80
2019-06-20T09:47:00.327Z,4.80
2019-06-20T09:48:00.322Z,4.10
2019-06-20T09:49:00.303Z,6.10
2019-06-20T09:50:00.291Z,4.30
2019-06-20T09:51:00.322Z,4.50
2019-06-20T09:52:00.276Z,4.80
2019-06-20T09:53:00.268Z,4.20
2019-06-20T09:54:00.262Z,7.00
2019-06-20T09:55:00.248Z,4.30
2019-06-20T09:56:00.238Z,4.20
2019-06-20T09:57:00.234Z,4.60
2019-06-20T09:58:00.217Z,4.20
2019-06-20T09:59:00.204Z,5.40
2019-06-20T10:00:09.784Z,6.10
2019-06-20T10:01:01.208Z,4.90
2019-06-20T10:02:00.173Z,4.40
2019-06-20T10:03:00.168Z,4.20
2019-06-20T10:04:00.144Z,4.30
2019-06-20T10:05:00.147Z,4.40
2019-06-20T10:06:00.346Z,4.10
2019-06-20T10:07:00.167Z,5.50
2019-06-20T10:08:00.119Z,6.40
2019-06-20T10:09:00.117Z,5.30
2019-06-20T10:10:00.096Z,5.80
2019-06-20T10:11:00.081Z,5.50
2019-06-20T10:12:00.068Z,4.90
2019-06-20T10:13:00.062Z,4.40
2019-06-20T10:14:00.043Z,4.70
2019-06-20T10:15:00.031Z,4.30
2019-06-20T10:16:00.018Z,5.10
2019-06-20T10:17:00.019Z,4.00
2019-06-20T10:18:00.013Z,4.30
2019-06-20T10:18:59.987Z,4.90
2019-06-20T10:19:59.979Z,5.20
2019-06-20T10:20:59.969Z,6.90
2019-06-20T10:21:59.970Z,4.60
2019-06-20T10:22:59.985Z,5.80
2019-06-20T10:23:59.933Z,3.80
2019-06-20T10:24:59.928Z,4.90
2019-06-20T10:25:59.919Z,3.80
2019-06-20T10:26:59.908Z,4.70
2019-06-20T10:27:59.891Z,5.30
2019-06-20T10:28:59.909Z,4.40
2019-06-20T10:30:13.368Z,4.20
2019-06-20T10:31:00.868Z,3.80
2019-06-20T10:31:59.857Z,4.10
2019-06-20T10:32:59.847Z,3.70
2019-06-20T10:33:59.845Z,3.60
2019-06-20T10:34:59.829Z,3.60
2019-06-20T10:35:59.821Z,4.00
2019-06-20T10:36:59.808Z,3.90
2019-06-20T10:37:59.791Z,4.60
2019-06-20T10:38:59.822Z,7.10
2019-06-20T10:39:59.771Z,3.60
2019-06-20T10:41:00.170Z,3.40
2019-06-20T10:41:59.759Z,3.90
2019-06-20T10:42:59.748Z,4.20
2019-06-20T10:43:59.731Z,4.60
2019-06-20T10:44:59.748Z,5.90
2019-06-20T10:45:59.720Z,3.20
2019-06-20T10:46:59.707Z,3.50
2019-06-20T10:47:59.735Z,3.90
2019-06-20T10:48:59.690Z,3.60
2019-06-20T10:49:59.677Z,3.60
2019-06-20T10:50:59.730Z,4.40
2019-06-20T10:51:59.652Z,3.90
2019-06-20T10:52:59.642Z,4.90
2019-06-20T10:53:59.634Z,4.10
2019-06-20T10:54:59.627Z,3.70
2019-06-20T10:55:59.614Z,3.90
2019-06-20T10:56:59.608Z,3.60
2019-06-20T10:57:59.621Z,4.00
2019-06-20T10:58:59.589Z,5.20
2019-06-20T10:59:59.581Z,5.10
2019-06-20T11:00:59.559Z,5.80
2019-06-20T11:01:59.548Z,3.90
2019-06-20T11:02:59.538Z,3.90
2019-06-20T11:03:59.533Z,4.40
2019-06-20T11:04:59.531Z,4.10
2019-06-20T11:05:59.515Z,4.70
2019-06-20T11:06:59.499Z,4.10
2019-06-20T11:07:59.498Z,4.20
2019-06-20T11:08:59.481Z,4.20
2019-06-20T11:09:59.495Z,4.20
2019-06-20T11:10:59.462Z,3.70
2019-06-20T11:11:59.453Z,3.80
2019-06-20T11:12:59.444Z,4.10
2019-06-20T11:13:59.442Z,5.50
2019-06-20T11:14:59.422Z,4.00
2019-06-20T11:15:59.419Z,4.10
2019-06-20T11:16:59.403Z,5.60
2019-06-20T11:17:59.392Z,4.10
2019-06-20T11:18:59.375Z,4.60
2019-06-20T11:19:59.370Z,5.20
2019-06-20T11:20:59.368Z,5.40
2019-06-20T11:21:59.351Z,4.30
2019-06-20T11:22:59.354Z,4.90
2019-06-20T11:23:59.326Z,4.30
2019-06-20T11:24:59.320Z,4.10
2019-06-20T11:25:59.314Z,4.10
2019-06-20T11:26:59.302Z,4.20
2019-06-20T11:27:59.291Z,5.10
2019-06-20T11:28:59.284Z,4.70
2019-06-20T11:29:59.271Z,4.20
2019-06-20T11:31:00.702Z,3.80
2019-06-20T11:31:59.246Z,4.60
2019-06-20T11:32:59.245Z,4.70
2019-06-20T11:33:59.239Z,5.20
2019-06-20T11:34:59.216Z,4.70
2019-06-20T11:35:59.213Z,4.00
2019-06-20T11:36:59.197Z,4.00
2019-06-20T11:37:59.287Z,4.70
2019-06-20T11:38:59.222Z,4.80
2019-06-20T11:39:59.170Z,4.40
2019-06-20T11:40:59.157Z,3.60
2019-06-20T11:41:59.148Z,4.00
2019-06-20T11:42:59.148Z,3.90
2019-06-20T11:43:59.133Z,4.30
2019-06-20T11:44:59.127Z,4.00
2019-06-20T11:45:59.107Z,3.70
2019-06-20T11:46:59.104Z,4.30
2019-06-20T11:47:59.097Z,3.80
2019-06-20T11:48:59.088Z,4.50
2019-06-20T11:49:59.073Z,4.40
2019-06-20T11:50:59.065Z,3.90
2019-06-20T11:51:59.081Z,4.90
2019-06-20T11:52:59.051Z,4.10
2019-06-20T11:53:59.032Z,4.20
2019-06-20T11:54:59.024Z,4.00
2019-06-20T11:55:59.017Z,3.80
2019-06-20T11:56:59.002Z,3.90
2019-06-20T11:57:59.014Z,4.00
2019-06-20T11:58:58.985Z,4.00
2019-06-20T11:59:58.976Z,4.10
2019-06-20T12:01:03.827Z,4.00
2019-06-20T12:01:59.956Z,4.20
2019-06-20T12:02:58.940Z,4.20
2019-06-20T12:03:58.941Z,4.00
2019-06-20T12:04:58.919Z,4.00
2019-06-20T12:05:58.920Z,4.30
2019-06-20T12:06:58.911Z,4.60
2019-06-20T12:07:58.890Z,4.20
2019-06-20T12:08:58.879Z,5.80
2019-06-20T12:09:58.872Z,4.40
2019-06-20T12:10:58.858Z,4.80
2019-06-20T12:11:58.851Z,4.40
2019-06-20T12:12:58.849Z,4.70
2019-06-20T12:13:58.839Z,4.80
2019-06-20T12:14:58.833Z,4.20
2019-06-20T12:15:58.806Z,4.20
2019-06-20T12:16:58.801Z,5.20
2019-06-20T12:17:58.824Z,5.70
2019-06-20T12:18:58.786Z,4.20
2019-06-20T12:19:58.766Z,3.90
2019-06-20T12:20:58.756Z,4.00
2019-06-20T12:21:58.747Z,4.70
2019-06-20T12:22:58.736Z,4.40
2019-06-20T12:23:58.754Z,4.00
2019-06-20T12:24:58.718Z,4.00
2019-06-20T12:25:58.705Z,4.30
2019-06-20T12:26:58.694Z,3.80
2019-06-20T12:27:58.718Z,4.00
2019-06-20T12:28:58.679Z,3.90
2019-06-20T12:29:58.668Z,3.90
2019-06-20T12:30:58.652Z,3.80
2019-06-20T12:31:59.158Z,4.00
2019-06-20T12:32:58.634Z,3.80
2019-06-20T12:33:58.644Z,3.70
2019-06-20T12:34:58.629Z,4.10
2019-06-20T12:35:58.608Z,3.60
2019-06-20T12:36:58.592Z,3.20
2019-06-20T12:37:58.587Z,3.50
2019-06-20T12:38:58.599Z,3.40
2019-06-20T12:39:58.689Z,3.70
2019-06-20T12:40:58.551Z,3.70
2019-06-20T12:41:58.565Z,3.40
2019-06-20T12:42:58.531Z,3.70
2019-06-20T12:43:58.521Z,3.70
2019-06-20T12:44:58.531Z,4.00
2019-06-20T12:45:58.509Z,3.80
2019-06-20T12:46:58.496Z,3.60
2019-06-20T12:47:58.486Z,3.30
2019-06-20T12:48:58.484Z,4.00
2019-06-20T12:49:58.466Z,3.80
2019-06-20T12:50:58.522Z,3.00
2019-06-20T12:51:58.444Z,3.80
2019-06-20T12:52:58.444Z,2.80
2019-06-20T12:53:58.426Z,3.30
2019-06-20T12:54:58.410Z,3.60
2019-06-20T12:55:58.412Z,4.80
2019-06-20T12:56:58.400Z,3.80
2019-06-20T12:57:58.392Z,3.20
2019-06-20T12:58:58.373Z,3.00
2019-06-20T12:59:58.388Z,3.20
2019-06-20T13:00:58.370Z,3.30
2019-06-20T13:01:58.360Z,3.90
2019-06-20T13:02:58.342Z,2.70
2019-06-20T13:03:58.330Z,2.40
2019-06-20T13:04:58.346Z,3.80
2019-06-20T13:05:58.473Z,3.10
2019-06-20T13:06:58.314Z,2.60
2019-06-20T13:07:58.292Z,2.60
2019-06-20T13:08:58.285Z,2.40
2019-06-20T13:09:58.266Z,2.90
2019-06-20T13:10:58.283Z,3.10
2019-06-20T13:11:58.256Z,2.90
2019-06-20T13:12:58.244Z,2.60
2019-06-20T13:13:58.243Z,2.50
2019-06-20T13:14:58.219Z,2.60
2019-06-20T13:15:58.218Z,3.10
2019-06-20T13:16:58.228Z,2.50
2019-06-20T13:17:58.208Z,2.60
2019-06-20T13:18:58.182Z,3.00
2019-06-20T13:19:58.171Z,2.50
2019-06-20T13:20:58.179Z,2.70
2019-06-20T13:21:58.161Z,2.80
2019-06-20T13:22:58.152Z,4.30